createdAt,value
2019-04-01T06:16:33.778Z,101419.78
2019-04-01T06:19:01.817Z,101426.41
2019-04-01T06:21:29.670Z,101432.12
2019-04-01T06:23:58.276Z,101433.95
2019-04-01T06:26:26.160Z,101433.34
2019-04-01T06:28:53.948Z,101429.08
2019-04-01T06:31:21.761Z,101427.09
2019-04-01T06:33:49.520Z,101427.79
2019-04-01T06:36:17.269Z,101432.24
2019-04-01T06:38:45.008Z,101427.48
2019-04-01T06:41:12.698Z,101428.09
2019-04-01T06:43:40.401Z,101419.84
2019-04-01T06:46:08.149Z,101426.80
2019-04-01T06:48:35.850Z,101421.13
2019-04-01T06:51:03.703Z,101430.79
2019-04-01T06:53:31.426Z,101436.33
2019-04-01T06:55:59.257Z,101419.68
2019-04-01T06:58:26.952Z,101423.95
2019-04-01T07:00:54.685Z,101432.34
2019-04-01T07:03:23.370Z,101431.84
2019-04-01T07:05:52.222Z,101423.80
2019-04-01T07:08:19.918Z,101430.74
2019-04-01T07:10:47.670Z,101428.06
2019-04-01T07:13:15.435Z,101418.55
2019-04-01T07:15:43.654Z,101418.77
2019-04-01T07:18:11.499Z,101426.16
2019-04-01T07:20:39.483Z,101423.26
2019-04-01T07:23:07.284Z,101424.97
2019-04-01T07:25:35.134Z,101422.17
2019-04-01T07:28:03.021Z,101421.36
2019-04-01T07:30:30.884Z,101419.70
2019-04-01T07:32:58.877Z,101418.33
2019-04-01T07:35:29.305Z,101418.61
2019-04-01T07:37:57.141Z,101419.61
2019-04-01T07:40:24.977Z,101422.67
2019-04-01T07:42:53.111Z,101418.42
2019-04-01T07:45:21.033Z,101420.77
2019-04-01T07:47:51.673Z,101417.98
2019-04-01T07:50:18.731Z,101418.83
2019-04-01T07:52:46.509Z,101416.41
2019-04-01T07:55:14.615Z,101420.91
2019-04-01T07:57:42.791Z,101412.63
2019-04-01T08:00:10.704Z,101415.67
2019-04-01T08:02:38.476Z,101422.69
2019-04-01T08:05:06.746Z,101415.48
2019-04-01T08:07:34.627Z,101427.17
2019-04-01T08:10:03.107Z,101417.20
2019-04-01T08:12:31.282Z,101415.24
2019-04-01T08:14:59.082Z,101422.44
2019-04-01T08:17:27.036Z,101416.75
2019-04-01T08:19:54.867Z,101407.88
2019-04-01T08:22:22.664Z,101411.38
2019-04-01T08:24:50.444Z,101408.20
2019-04-01T08:27:18.210Z,101409.55
2019-04-01T08:29:46.356Z,101406.20
2019-04-01T08:32:14.380Z,101409.84
2019-04-01T08:34:42.142Z,101393.77
2019-04-01T08:37:10.272Z,101393.77
2019-04-01T08:39:38.011Z,101395.97
2019-04-01T08:42:05.894Z,101394.41
2019-04-01T08:44:33.694Z,101391.27
2019-04-01T08:47:01.547Z,101390.05
2019-04-01T08:49:29.514Z,101395.40
2019-04-01T08:51:57.313Z,101394.20
2019-04-01T08:54:25.260Z,101394.38
2019-04-01T08:56:53.166Z,101399.50
2019-04-01T08:59:23.547Z,101398.16
2019-04-01T09:01:53.513Z,101401.22
2019-04-01T09:04:21.823Z,101391.19
2019-04-01T09:06:49.711Z,101393.72
2019-04-01T09:09:17.611Z,101387.75
2019-04-01T09:11:45.683Z,101372.67
2019-04-01T09:14:14.807Z,101370.94
2019-04-01T09:16:43.403Z,101372.92
2019-04-01T09:19:11.191Z,101363.52
2019-04-01T09:21:38.997Z,101360.31
2019-04-01T09:24:06.967Z,101352.41
2019-04-01T09:26:34.802Z,101355.36
2019-04-01T09:29:02.866Z,101345.30
2019-04-01T09:31:30.696Z,101352.06
2019-04-01T09:33:58.569Z,101350.61
2019-04-01T09:36:26.554Z,101342.03
2019-04-01T09:38:54.421Z,101345.83
2019-04-01T09:41:22.354Z,101344.53
2019-04-01T09:43:50.150Z,101336.14
2019-04-01T09:46:18.031Z,101334.75
2019-04-01T09:48:45.978Z,101330.29
2019-04-01T09:51:13.767Z,101331.58
2019-04-01T09:53:41.836Z,101326.78
2019-04-01T09:56:09.664Z,101331.18
2019-04-01T09:58:37.529Z,101319.87
2019-04-01T10:01:05.430Z,101321.66
2019-04-01T10:03:33.191Z,101303.39
2019-04-01T10:06:01.125Z,101313.70
2019-04-01T10:08:41.435Z,101300.55
2019-04-01T10:11:01.360Z,101293.11
2019-04-01T10:13:29.418Z,101295.31
2019-04-01T10:15:57.194Z,101296.71
2019-04-01T10:18:25.010Z,101285.90
2019-04-01T10:20:52.858Z,101284.10
2019-04-01T10:23:20.708Z,101299.70
2019-04-01T10:25:51.275Z,101284.23
2019-04-01T10:28:18.222Z,101285.47
2019-04-01T10:30:46.073Z,101295.61
2019-04-01T10:33:13.866Z,101277.00
2019-04-01T10:35:42.002Z,101279.18
2019-04-01T10:38:09.891Z,101276.75
2019-04-01T10:40:37.878Z,101256.98
2019-04-01T10:43:05.703Z,101264.48
2019-04-01T10:45:33.507Z,101267.80
2019-04-01T10:48:01.393Z,101269.31
2019-04-01T10:50:29.343Z,101257.53
2019-04-01T10:52:57.142Z,101257.41
2019-04-01T10:55:25.148Z,101260.95
2019-04-01T10:57:54.118Z,101270.41
2019-04-01T11:00:22.515Z,101251.78
2019-04-01T11:02:50.496Z,101258.81
2019-04-01T11:05:18.457Z,101247.48
2019-04-01T11:07:46.260Z,101245.20
2019-04-01T11:10:14.143Z,101252.43
2019-04-01T11:12:41.978Z,101243.34
2019-04-01T11:15:10.791Z,101247.26
2019-04-01T11:17:38.610Z,101238.06
2019-04-01T11:20:10.831Z,101238.04
2019-04-01T11:22:38.778Z,101236.00
2019-04-01T11:25:07.302Z,101225.95
2019-04-01T11:27:35.427Z,101224.22
2019-04-01T11:30:04.350Z,101222.00
2019-04-01T11:32:32.139Z,101206.91
2019-04-01T11:35:00.033Z,101219.14
2019-04-01T11:37:27.921Z,101206.05
2019-04-01T11:39:55.787Z,101218.45
2019-04-01T11:42:23.749Z,101213.84
2019-04-01T11:44:52.549Z,101207.50
2019-04-01T11:47:22.267Z,101197.34
2019-04-01T11:49:50.349Z,101203.55
2019-04-01T11:52:18.358Z,101193.84
2019-04-01T11:54:46.256Z,101198.14
2019-04-01T11:57:14.076Z,101184.38
2019-04-01T11:59:41.933Z,101180.55
2019-04-01T12:02:09.786Z,101176.67
2019-04-01T12:04:37.601Z,101171.94
2019-04-01T12:07:05.708Z,101170.41
2019-04-01T12:09:33.560Z,101176.32
2019-04-01T12:12:01.476Z,101167.25
2019-04-01T12:14:29.251Z,101167.67
2019-04-01T12:16:57.474Z,101157.80
2019-04-01T12:19:27.186Z,101161.20
2019-04-01T12:21:55.035Z,101166.88
2019-04-01T12:24:22.832Z,101149.63
2019-04-01T12:26:50.746Z,101148.23
2019-04-01T12:29:18.539Z,101139.40
2019-04-01T12:31:46.359Z,101143.02
2019-04-01T12:34:14.690Z,101135.91
2019-04-01T12:36:42.544Z,101128.80
2019-04-01T12:39:10.403Z,101131.72
2019-04-01T12:41:38.240Z,101116.52
2019-04-01T12:44:06.060Z,101126.47
2019-04-01T12:46:33.856Z,101113.89
2019-04-01T12:49:01.737Z,101110.73
2019-04-01T12:53:20.867Z,101102.17
2019-04-01T13:03:06.707Z,101075.70
2019-04-01T13:05:37.742Z,101075.25
2019-04-01T13:08:05.783Z,101070.02
2019-04-01T13:19:01.656Z,101058.73
2019-04-01T13:21:29.460Z,101048.46
2019-04-01T13:23:57.399Z,101047.27
2019-04-01T13:26:25.231Z,101047.18
2019-04-01T13:28:53.091Z,101047.97
2019-04-01T13:31:20.947Z,101038.48
2019-04-01T13:33:48.809Z,101032.34
2019-04-01T13:36:16.614Z,101024.59
2019-04-01T13:38:44.546Z,101017.85
2019-04-01T13:41:13.306Z,101021.06
2019-04-01T13:43:41.318Z,101014.30
2019-04-01T13:46:18.403Z,101020.77
2019-04-01T13:48:57.434Z,101015.86
2019-04-01T13:51:20.365Z,101014.78
2019-04-01T13:53:48.232Z,101012.77
2019-04-01T13:56:16.011Z,101005.08
2019-04-01T13:58:43.869Z,101003.51
2019-04-01T14:01:11.800Z,100987.84
2019-04-01T14:03:39.677Z,100989.92
2019-04-01T14:06:07.443Z,100982.67
2019-04-01T14:08:35.261Z,100980.58
2019-04-01T14:11:06.011Z,100972.14
2019-04-01T14:13:32.925Z,100960.75
2019-04-01T14:16:00.775Z,100966.30
2019-04-01T14:18:28.803Z,100964.98
2019-04-01T14:20:56.669Z,100958.19
2019-04-01T14:23:24.575Z,100951.81
2019-04-01T14:25:52.865Z,100958.42
2019-04-01T14:28:20.778Z,100950.59
2019-04-01T14:30:48.729Z,100953.70
2019-04-01T14:33:16.540Z,100940.89
2019-04-01T14:35:45.256Z,100943.51
2019-04-01T14:38:15.671Z,100935.65
2019-04-01T14:40:43.503Z,100942.88
2019-04-01T14:43:16.212Z,100939.00
2019-04-01T14:45:41.607Z,100927.72
2019-04-01T14:48:09.622Z,100927.95
2019-04-01T14:50:37.642Z,100924.86
2019-04-01T14:53:06.131Z,100938.91
2019-04-01T14:55:33.917Z,100926.91
2019-04-01T14:58:01.882Z,100926.03
2019-04-01T15:00:29.723Z,100926.91
2019-04-01T15:02:57.744Z,100921.19
2019-04-01T15:05:25.524Z,100914.31
2019-04-01T15:07:53.363Z,100920.36
2019-04-01T15:10:21.196Z,100913.30
2019-04-01T15:13:04.095Z,100904.86
2019-04-01T15:15:18.749Z,100906.72
2019-04-01T15:17:51.658Z,100904.46
2019-04-01T15:20:21.565Z,100909.78
2019-04-01T15:22:49.415Z,100920.47
2019-04-01T15:25:17.292Z,100909.80
2019-04-01T15:27:45.369Z,100902.47
2019-04-01T15:30:14.286Z,100907.45
2019-04-01T15:32:42.603Z,100899.06
2019-04-01T15:35:10.736Z,100895.40
2019-04-01T15:37:39.966Z,100899.04
2019-04-01T15:40:08.925Z,100893.77
2019-04-01T15:42:36.744Z,100886.70
2019-04-01T15:45:06.103Z,100883.02
2019-04-01T15:47:38.302Z,100878.23
2019-04-01T15:50:06.475Z,100881.23
2019-04-01T15:52:34.613Z,100870.75
2019-04-01T15:55:02.950Z,100874.69
2019-04-01T15:57:31.276Z,100874.69
2019-04-01T15:59:59.124Z,100867.36
2019-04-01T16:02:26.944Z,100866.16
2019-04-01T16:04:56.803Z,100864.17
2019-04-01T16:07:24.766Z,100863.95
2019-04-01T16:09:52.577Z,100856.20
2019-04-01T16:12:20.542Z,100850.56
2019-04-01T16:14:48.327Z,100854.86
2019-04-01T16:17:30.402Z,100856.75
2019-04-01T16:20:13.475Z,100847.92
2019-04-01T16:22:43.676Z,100842.28
2019-04-01T16:25:11.193Z,100835.74
2019-04-01T16:27:39.102Z,100836.53
2019-04-01T16:30:08.076Z,100826.98
2019-04-01T16:32:36.173Z,100826.15
2019-04-01T16:35:04.895Z,100831.72
2019-04-01T16:37:32.735Z,100827.45
2019-04-01T16:40:00.551Z,100828.11
2019-04-01T16:42:28.362Z,100824.23
2019-04-01T16:44:56.360Z,100821.31
2019-04-01T16:47:24.304Z,100822.28
2019-04-01T16:49:52.336Z,100824.42
2019-04-01T16:52:20.220Z,100828.77
2019-04-01T16:54:57.969Z,100821.10
2019-04-01T16:57:25.763Z,100821.08
2019-04-01T16:59:53.569Z,100817.61
2019-04-01T17:02:21.726Z,100819.67
2019-04-01T17:04:49.469Z,100827.17
2019-04-01T17:07:19.530Z,100819.72
2019-04-01T17:09:47.233Z,100825.50
2019-04-01T17:12:15.687Z,100829.61
2019-04-01T17:14:43.536Z,100820.14
2019-04-01T17:17:11.472Z,100826.64
2019-04-01T17:19:39.434Z,100816.23
2019-04-01T17:22:07.366Z,100818.53
2019-04-01T17:24:35.231Z,100818.40
2019-04-01T17:27:13.109Z,100815.08
2019-04-01T17:29:44.549Z,100816.59
2019-04-01T17:32:12.640Z,100815.73
2019-04-01T17:34:40.563Z,100816.72
2019-04-01T17:37:09.265Z,100813.47
2019-04-01T17:39:37.441Z,100817.42
2019-04-01T17:42:05.810Z,100812.64
2019-04-01T17:44:33.712Z,100820.95
2019-04-01T17:47:01.490Z,100823.97
2019-04-01T17:49:30.244Z,100821.48
2019-04-01T17:51:58.963Z,100824.06
2019-04-01T17:54:26.792Z,100825.32
2019-04-01T17:56:54.609Z,100824.19
2019-04-01T17:59:22.511Z,100821.80
2019-04-01T18:01:50.326Z,100822.02
2019-04-01T18:04:19.418Z,100822.95
2019-04-01T18:06:47.303Z,100821.39
2019-04-01T18:09:15.096Z,100828.84
2019-04-01T18:11:43.058Z,100827.37
2019-04-01T18:14:10.810Z,100827.59
2019-04-01T18:16:38.583Z,100831.07
2019-04-01T18:19:07.238Z,100831.41
2019-04-01T18:21:38.130Z,100835.23
2019-04-01T18:24:05.367Z,100831.83
2019-04-01T18:26:33.117Z,100847.86
2019-04-01T18:29:00.873Z,100843.89
2019-04-01T18:31:28.665Z,100839.63
2019-04-01T18:33:56.796Z,100844.79
2019-04-01T18:36:24.651Z,100842.02
2019-04-01T18:38:52.446Z,100839.66
2019-04-01T18:41:20.171Z,100841.27
2019-04-01T18:43:48.163Z,100837.59
2019-04-01T18:46:16.113Z,100844.55
2019-04-01T18:48:44.139Z,100839.88
2019-04-01T18:51:11.988Z,100839.95
2019-04-01T18:53:40.092Z,100835.61
2019-04-01T18:56:07.884Z,100842.68
2019-04-01T18:58:35.653Z,100838.00
2019-04-01T19:01:06.640Z,100836.69
2019-04-01T19:03:36.302Z,100831.75
2019-04-01T19:06:07.508Z,100828.83
2019-04-01T19:08:43.439Z,100831.08
2019-04-01T19:11:11.319Z,100837.77
2019-04-01T19:13:39.085Z,100838.88
2019-04-01T19:16:08.376Z,100835.04
2019-04-01T19:18:39.400Z,100838.20
2019-04-01T19:21:06.310Z,100840.58
2019-04-01T19:23:34.316Z,100844.86
2019-04-01T19:26:02.202Z,100835.27
2019-04-01T19:28:30.091Z,100839.95
2019-04-01T19:30:57.936Z,100843.69
2019-04-01T19:33:26.250Z,100833.70
2019-04-01T19:35:54.085Z,100836.89
2019-04-01T19:38:21.928Z,100845.05
2019-04-01T19:40:50.008Z,100834.61
2019-04-01T19:43:17.900Z,100825.14
2019-04-01T19:45:50.730Z,100830.86
2019-04-01T19:48:18.682Z,100825.99
2019-04-01T19:50:46.518Z,100825.69
2019-04-01T19:53:14.365Z,100830.73
2019-04-01T19:55:43.939Z,100832.86
2019-04-01T19:58:11.897Z,100828.19
2019-04-01T20:00:41.176Z,100835.85
2019-04-01T20:03:09.353Z,100826.39
2019-04-01T20:05:37.358Z,100825.58
2019-04-01T20:08:05.419Z,100817.19
2019-04-01T20:10:33.352Z,100822.50
2019-04-01T20:13:01.366Z,100814.33
2019-04-01T20:15:29.121Z,100813.85
2019-04-01T20:17:57.020Z,100806.19
2019-04-01T20:20:24.791Z,100812.78
2019-04-01T20:22:53.974Z,100811.19
2019-04-01T20:25:22.166Z,100802.17
2019-04-01T20:27:49.935Z,100807.41
2019-04-01T20:30:18.723Z,100802.36
2019-04-01T20:32:46.579Z,100803.10
2019-04-01T20:35:23.208Z,100792.81
2019-04-01T20:37:44.581Z,100794.85
2019-04-01T20:40:13.031Z,100795.12
2019-04-01T20:42:41.259Z,100790.50
2019-04-01T20:45:13.642Z,100788.39
2019-04-01T20:47:44.473Z,100786.91
2019-04-01T20:50:14.682Z,100785.30
2019-04-01T20:52:43.315Z,100786.54
2019-04-01T20:55:13.277Z,100781.94
2019-04-01T20:57:46.053Z,100778.11
2019-04-01T21:00:14.887Z,100773.48
2019-04-01T21:02:42.857Z,100778.54
2019-04-01T21:05:10.959Z,100774.62
2019-04-01T21:07:39.149Z,100776.78
2019-04-01T21:10:11.169Z,100771.80
2019-04-01T21:13:48.062Z,100768.30
2019-04-01T21:16:16.781Z,100763.41
2019-04-01T21:18:44.713Z,100760.83
2019-04-01T21:21:32.253Z,100770.53
2019-04-01T21:24:00.418Z,100761.28
2019-04-01T21:26:28.264Z,100756.80
2019-04-01T21:28:56.134Z,100753.34
2019-04-01T21:31:23.908Z,100748.64
2019-04-01T21:33:52.071Z,100750.43
2019-04-01T21:36:20.053Z,100744.95
2019-04-01T21:38:47.947Z,100749.78
2019-04-01T21:41:16.010Z,100745.63
2019-04-01T21:43:44.134Z,100754.27
2019-04-01T21:46:13.194Z,100747.30
2019-04-01T21:48:41.840Z,100742.90
2019-04-01T21:51:09.732Z,100748.26
2019-04-01T21:53:37.942Z,100741.47
2019-04-01T21:56:05.929Z,100741.03
2019-04-01T21:58:33.885Z,100745.05
2019-04-01T22:01:01.914Z,100739.35
2019-04-01T22:03:32.222Z,100733.12
2019-04-01T22:06:00.279Z,100733.34
2019-04-01T22:08:28.470Z,100737.36
2019-04-01T22:10:56.295Z,100728.02
2019-04-01T22:13:24.253Z,100733.09
2019-04-01T22:15:52.012Z,100724.24
2019-04-01T22:18:19.805Z,100723.22
2019-04-01T22:20:47.562Z,100721.50
2019-04-01T22:23:15.338Z,100717.36
2019-04-01T22:25:43.100Z,100711.28
2019-04-01T22:28:10.927Z,100705.92
2019-04-01T22:30:38.743Z,100709.84
2019-04-01T22:33:06.512Z,100699.53
2019-04-01T22:35:38.857Z,100699.53
2019-04-01T22:38:06.215Z,100695.20
2019-04-01T22:40:33.932Z,100686.17
2019-04-01T22:43:01.841Z,100686.98
2019-04-01T22:45:29.613Z,100689.51
2019-04-01T22:47:57.465Z,100685.13
2019-04-01T22:50:25.233Z,100682.16
2019-04-01T22:52:53.079Z,100683.88
2019-04-01T22:55:20.892Z,100685.13
2019-04-01T22:57:48.823Z,100678.58
2019-04-01T23:00:18.337Z,100674.22
2019-04-01T23:02:46.379Z,100680.68
2019-04-01T23:05:14.162Z,100673.73
2019-04-01T23:07:41.963Z,100672.97
2019-04-01T23:10:09.857Z,100679.97
2019-04-01T23:12:39.455Z,100675.14
2019-04-01T23:15:07.803Z,100674.52
2019-04-01T23:17:35.689Z,100673.83
2019-04-01T23:20:05.898Z,100677.27
2019-04-01T23:22:33.712Z,100673.23
2019-04-01T23:25:01.855Z,100676.88
2019-04-01T23:27:29.580Z,100671.13
2019-04-01T23:29:57.573Z,100663.32
2019-04-01T23:32:25.566Z,100663.30
2019-04-01T23:34:53.351Z,100655.68
2019-04-01T23:37:21.119Z,100656.50
2019-04-01T23:39:49.351Z,100648.39
2019-04-01T23:42:17.138Z,100649.73
2019-04-01T23:44:44.913Z,100642.45
2019-04-01T23:47:12.660Z,100646.82
2019-04-01T23:49:40.836Z,100641.70
2019-04-01T23:52:08.588Z,100636.72
2019-04-01T23:54:36.388Z,100630.23
2019-04-01T23:57:04.212Z,100630.32
2019-04-01T23:59:32.018Z,100624.13
